Accueil
METAR-TAF:

METAR-TAF

Aéroports :

Aéroport international Sultan Aji Muhamad Sulaiman

Balikpapan, Indonésie

latitude: 01-16-06S, longitude: 116-53-40E, altitude: 4 m

Observation

Le bulletin a été fait il y a 22 minutes, à 12:30 UTC
Vent 5 kt de ouest, variant entre sud/sud-ouest et nord
Température 28°C
Humidité 89%
Pression 1008 hPa
Visibilité: 9000 m
Nuages épars à une hauteur de 2000 ft

METAR: WALL 201230Z 28005KT 200V350 9000 SCT020 28/26 Q1008 NOSIG

Heure: 19:52 (12:52 UTC)

Prévision

Le bulletin a été fait il y a 1 heure et 52 minutes, à 11:00 UTC
Prévision valable du 20 à 12 UTC au 21 à 18 UTC
Vent kt de nord
Visibilité: 9000 m
Quelques nuages à une hauteur de 2000 ft

TAF: WALL 201100Z 2012/2118 00000KT 9000 FEW020

Observations et prévisions météorologiques de plus de 4000 aéroports (messages METAR et TAF).

Les stations disponibles sont représentées par des disques jaunes et rouges sur la carte.

Passer la souris dessus pour voir le nom de la station.

Cliquer dessus pour voir les observations et prévisions météorologiques.

Pour changer de carte: cliquez sur les boutons verts avec une croix noire pour zoomer, sur le bouton vert avec un tiret pour effectuer un zoom arrière, ou sur les flèches vertes pour les cartes adjacentes.


METAR-TAF: